Time;durP1;ratioP1;P1;durP2;ratioP2;P2;SDS_P1;SDS_P2;PMS_P1;PMS_P2;Temp;Humidity;BMP_temperature;BMP_pressure;BME280_temperature;BME280_humidity;BME280_pressure;Samples;Min_cycle;Max_cycle;Signal;HPM_P1;HPM_P2
2021/12/04 00:01:54;;;;;;;5.45;2.88;;;;;;;3.39;81.34;98377.19;5040543;28;20058;-64
2021/12/04 00:04:24;;;;;;;6.75;2.78;;;;;;;3.76;80.00;98367.63;5040337;28;20032;-65
2021/12/04 00:06:49;;;;;;;5.35;2.35;;;;;;;3.52;80.34;98364.41;5058564;28;20036;-65
2021/12/04 00:09:17;;;;;;;5.68;2.80;;;;;;;3.52;80.36;98365.19;5059800;28;20543;-64
2021/12/04 00:11:51;;;;;;;5.85;3.35;;;;;;;3.31;80.82;98365.00;5059153;28;20111;-65
2021/12/04 00:14:18;;;;;;;5.15;2.63;;;;;;;3.36;81.15;98366.91;5058417;28;20420;-65
2021/12/04 00:16:43;;;;;;;4.78;2.70;;;;;;;3.39;80.85;98361.03;5059187;28;20037;-64
2021/12/04 00:19:09;;;;;;;5.15;2.83;;;;;;;3.63;80.74;98363.44;5058878;28;20051;-64
2021/12/04 00:21:34;;;;;;;6.07;2.65;;;;;;;3.13;82.39;98361.50;5058889;28;20483;-64
2021/12/04 00:23:59;;;;;;;7.38;3.33;;;;;;;3.34;81.13;98359.09;5058315;28;20074;-64
2021/12/04 00:26:24;;;;;;;4.88;2.65;;;;;;;3.46;80.53;98358.94;5059057;28;20457;-64
2021/12/04 00:28:50;;;;;;;5.38;2.85;;;;;;;3.54;80.26;98348.81;5057301;28;20064;-65
2021/12/04 00:31:15;;;;;;;4.50;2.42;;;;;;;4.36;77.90;98339.00;5059094;28;20041;-64
2021/12/04 00:33:44;;;;;;;4.20;2.35;;;;;;;3.75;79.31;98341.72;5057878;28;20105;-64
2021/12/04 00:36:19;;;;;;;4.63;2.25;;;;;;;3.76;78.92;98329.88;5062659;28;20036;-64
2021/12/04 00:49:41;;;;;;;5.07;2.95;;;;;;;3.56;80.63;98319.72;5061935;28;20215;-64
2021/12/04 00:52:06;;;;;;;6.30;2.78;;;;;;;3.42;80.81;98322.78;5044761;28;20395;-65
2021/12/04 00:54:31;;;;;;;6.80;3.38;;;;;;;3.47;80.97;98330.13;5061827;28;20033;-65
2021/12/04 00:56:57;;;;;;;5.75;2.67;;;;;;;3.78;79.93;98330.44;5062687;28;20028;-66
2021/12/04 00:59:22;;;;;;;4.40;2.25;;;;;;;3.78;79.52;98325.06;5061087;28;20032;-65
2021/12/04 01:01:48;;;;;;;5.43;2.67;;;;;;;3.72;79.39;98316.09;5062282;28;20028;-65
2021/12/04 01:04:17;;;;;;;3.83;2.17;;;;;;;3.66;80.62;98316.31;5061840;28;20479;-64
2021/12/04 01:06:44;;;;;;;5.00;2.30;;;;;;;3.37;81.79;98320.06;5061903;28;20028;-65
2021/12/04 01:09:12;;;;;;;7.22;3.00;;;;;;;3.96;80.05;98326.56;5062575;28;20017;-64
2021/12/04 01:11:40;;;;;;;6.35;3.17;;;;;;;3.44;81.06;98314.47;5061718;28;20032;-64
2021/12/04 01:14:07;;;;;;;6.57;3.40;;;;;;;3.29;82.39;98307.84;5061764;28;20024;-65
2021/12/04 01:16:33;;;;;;;6.88;4.10;;;;;;;3.49;82.04;98307.25;5060999;28;20024;-65
2021/12/04 01:18:58;;;;;;;5.57;2.72;;;;;;;3.40;82.31;98292.59;5061776;28;20031;-64
2021/12/04 01:21:23;;;;;;;7.88;4.18;;;;;;;3.53;82.06;98295.94;5061994;28;20103;-64
2021/12/04 01:23:49;;;;;;;5.50;2.83;;;;;;;3.51;82.32;98293.53;5061624;28;20147;-64
2021/12/04 01:26:14;;;;;;;6.85;3.33;;;;;;;3.70;81.27;98291.25;5062171;28;20036;-64
2021/12/04 01:28:39;;;;;;;9.13;3.47;;;;;;;3.74;81.38;98296.97;5060553;28;20033;-63
2021/12/04 01:31:05;;;;;;;6.72;3.50;;;;;;;3.67;81.08;98285.56;5062543;28;20072;-65
2021/12/04 01:33:30;;;;;;;5.93;2.60;;;;;;;3.79;81.04;98283.53;5061111;28;20328;-63
2021/12/04 01:35:56;;;;;;;7.22;3.28;;;;;;;3.79;80.77;98283.53;5062432;28;20077;-64
2021/12/04 01:38:22;;;;;;;5.63;2.67;;;;;;;3.66;81.25;98270.47;5061726;28;20082;-65
2021/12/04 01:41:07;;;;;;;7.55;3.92;;;;;;;3.91;80.08;98269.06;5062178;28;20111;-65
2021/12/04 01:43:33;;;;;;;7.25;2.85;;;;;;;3.66;81.20;98273.19;5061450;28;20038;-64
2021/12/04 01:45:59;;;;;;;6.30;3.33;;;;;;;3.43;81.61;98275.94;5060113;28;20032;-65
2021/12/04 01:48:25;;;;;;;6.72;3.58;;;;;;;3.90;80.68;98270.13;5061618;28;20127;-64
2021/12/04 01:50:52;;;;;;;8.48;4.25;;;;;;;3.52;81.08;98268.19;5061904;28;20098;-65
2021/12/04 01:53:18;;;;;;;7.07;3.30;;;;;;;3.74;81.78;98270.03;5061605;28;20510;-64
2021/12/04 01:55:43;;;;;;;7.28;3.13;;;;;;;3.38;81.06;98259.69;5061373;28;20036;-63
2021/12/04 01:58:09;;;;;;;5.97;3.17;;;;;;;3.26;82.23;98265.22;5061911;28;20016;-65
2021/12/04 02:00:37;;;;;;;6.68;3.53;;;;;;;3.23;83.08;98269.28;5059380;28;21004;-64
2021/12/04 02:03:07;;;;;;;6.50;3.60;;;;;;;3.17;82.89;98272.97;5061486;28;20114;-64
2021/12/04 02:05:34;;;;;;;7.30;3.47;;;;;;;3.61;81.97;98269.38;5060859;28;20471;-65
2021/12/04 02:07:59;;;;;;;6.10;3.47;;;;;;;3.58;81.00;98261.78;5060585;28;20036;-65
2021/12/04 02:10:25;;;;;;;6.32;3.30;;;;;;;3.82;80.89;98261.44;5061615;28;20029;-64
2021/12/04 02:12:51;;;;;;;8.20;3.70;;;;;;;4.11;79.76;98270.31;5060640;28;20020;-65
2021/12/04 02:15:17;;;;;;;5.55;3.20;;;;;;;4.14;78.80;98267.91;5059954;28;20020;-64
2021/12/04 02:17:46;;;;;;;5.72;2.88;;;;;;;3.52;81.04;98254.69;5059974;28;20972;-65
2021/12/04 02:20:16;;;;;;;8.15;3.05;;;;;;;3.78;80.17;98263.03;5061241;28;20270;-65
2021/12/04 02:22:41;;;;;;;6.95;3.55;;;;;;;3.40;81.56;98252.16;5060792;28;20035;-65
2021/12/04 02:25:09;;;;;;;5.97;3.00;;;;;;;3.72;81.53;98256.78;5060029;28;20029;-65
2021/12/04 02:27:35;;;;;;;7.32;3.72;;;;;;;3.72;81.81;98251.38;5060374;28;20039;-64
2021/12/04 02:30:00;;;;;;;7.50;3.55;;;;;;;3.55;81.92;98245.31;5058767;28;21083;-64
2021/12/04 02:32:26;;;;;;;5.78;3.28;;;;;;;3.74;81.01;98243.06;5060082;28;20135;-64
2021/12/04 02:34:51;;;;;;;8.27;3.85;;;;;;;3.55;81.52;98246.13;5059866;28;20119;-64
2021/12/04 02:37:16;;;;;;;7.07;3.75;;;;;;;3.67;80.72;98247.84;5060335;28;20327;-65
2021/12/04 02:39:45;;;;;;;5.57;2.92;;;;;;;4.06;79.15;98236.81;5060960;28;20028;-64
2021/12/04 02:42:22;;;;;;;6.78;3.92;;;;;;;4.06;79.65;98239.53;5059106;28;20032;-64
2021/12/04 02:44:49;;;;;;;7.47;3.90;;;;;;;4.34;78.89;98231.31;5060385;28;20027;-65
2021/12/04 02:47:15;;;;;;;5.40;2.65;;;;;;;4.34;78.52;98222.41;5059500;28;20033;-64
2021/12/04 02:49:41;;;;;;;7.03;3.25;;;;;;;3.93;79.70;98226.47;5060239;28;20384;-63
2021/12/04 02:52:09;;;;;;;7.55;3.35;;;;;;;4.14;79.25;98218.53;5060032;28;20020;-64
2021/12/04 02:54:35;;;;;;;7.18;3.60;;;;;;;3.70;80.66;98223.06;5058501;28;20451;-65
2021/12/04 02:57:01;;;;;;;6.75;3.47;;;;;;;3.61;80.69;98225.41;5058989;28;20040;-65
2021/12/04 02:59:27;;;;;;;8.38;4.07;;;;;;;3.95;79.67;98221.63;5054804;28;20190;-65
2021/12/04 03:01:57;;;;;;;7.68;3.70;;;;;;;4.32;78.62;98207.31;5060164;28;20038;-64
2021/12/04 03:04:24;;;;;;;6.63;3.35;;;;;;;4.74;77.14;98193.97;5059696;28;20039;-64
2021/12/04 03:06:50;;;;;;;6.32;3.75;;;;;;;3.99;79.68;98192.28;5060110;28;20105;-64
2021/12/04 03:09:15;;;;;;;7.65;3.30;;;;;;;4.28;79.21;98184.63;5059901;28;20032;-64
2021/12/04 03:11:41;;;;;;;6.80;2.88;;;;;;;4.09;79.45;98174.25;5059470;28;20101;-65
2021/12/04 03:14:07;;;;;;;7.22;3.30;;;;;;;4.18;79.44;98181.84;5059210;28;21079;-64
2021/12/04 03:16:34;;;;;;;7.05;3.92;;;;;;;4.13;79.16;98173.75;5059350;28;20024;-65
2021/12/04 03:19:00;;;;;;;6.78;3.10;;;;;;;3.77;81.20;98177.81;5060355;28;20043;-65
2021/12/04 03:21:25;;;;;;;8.10;3.83;;;;;;;4.41;78.24;98152.84;5059913;28;20029;-65
2021/12/04 03:23:57;;;;;;;7.47;3.67;;;;;;;3.88;80.95;98156.31;5060302;28;20496;-64
2021/12/04 03:26:25;;;;;;;7.13;3.60;;;;;;;3.67;81.24;98153.50;5059417;28;20534;-64
2021/12/04 03:28:52;;;;;;;6.78;3.22;;;;;;;3.68;81.56;98142.44;5058828;28;20809;-65
2021/12/04 03:42:17;;;;;;;8.23;3.83;;;;;;;3.42;81.84;98134.16;5059314;28;20440;-64
2021/12/04 03:44:42;;;;;;;7.28;3.92;;;;;;;3.52;81.59;98133.44;5058626;28;20021;-64
2021/12/04 03:47:09;;;;;;;7.00;4.07;;;;;;;3.48;82.35;98126.94;5058748;28;20039;-63
2021/12/04 03:49:34;;;;;;;7.43;3.72;;;;;;;3.53;82.36;98124.28;5059099;28;20073;-64
2021/12/04 03:52:00;;;;;;;7.88;3.33;;;;;;;3.68;81.72;98110.09;5058816;28;20029;-64
2021/12/04 03:54:25;;;;;;;6.93;3.42;;;;;;;3.88;80.28;98119.41;5059186;28;20082;-64
2021/12/04 03:57:00;;;;;;;7.22;3.60;;;;;;;3.69;80.96;98114.44;5059821;28;20484;-64
2021/12/04 03:59:26;;;;;;;7.35;3.75;;;;;;;4.01;79.86;98117.31;5058571;28;20013;-65
2021/12/04 04:01:51;;;;;;;7.35;3.78;;;;;;;4.11;79.43;98111.16;5059214;28;20028;-64
2021/12/04 04:04:16;;;;;;;7.65;4.05;;;;;;;3.92;79.53;98114.28;5058999;28;20380;-65
2021/12/04 04:06:42;;;;;;;6.15;2.90;;;;;;;3.98;79.17;98118.63;5059288;28;20074;-64
2021/12/04 04:09:07;;;;;;;4.82;2.80;;;;;;;4.02;79.40;98119.75;5059447;28;20059;-65
2021/12/04 04:11:36;;;;;;;5.68;3.22;;;;;;;3.99;79.58;98112.16;5063451;28;20098;-63
2021/12/04 04:14:01;;;;;;;5.85;3.22;;;;;;;3.67;80.82;98118.44;5062511;28;20075;-64
2021/12/04 04:16:26;;;;;;;9.80;3.88;;;;;;;3.93;79.49;98127.50;5063071;28;20412;-64
2021/12/04 04:18:51;;;;;;;6.72;4.00;;;;;;;3.91;79.77;98126.13;5063350;28;20024;-64
2021/12/04 04:21:17;;;;;;;7.45;3.45;;;;;;;3.78;80.11;98125.53;5062958;28;20029;-64
2021/12/04 04:23:42;;;;;;;8.35;4.13;;;;;;;4.22;78.67;98115.50;5063167;28;20044;-64
2021/12/04 04:29:11;;;;;;;6.28;3.13;;;;;;;4.52;77.32;98105.91;5053027;28;20051;-64
2021/12/04 04:31:45;;;;;;;6.93;4.05;;;;;;;4.48;77.44;98099.41;5062447;28;20032;-65
2021/12/04 04:34:11;;;;;;;8.77;3.70;;;;;;;4.16;78.87;98097.69;5044194;28;20070;-64
2021/12/04 05:11:19;;;;;;;6.38;2.53;;;;;;;4.78;76.70;98076.25;5063210;28;20165;-64
2021/12/04 05:13:44;;;;;;;5.55;2.83;;;;;;;4.88;76.37;98071.97;5061349;28;20114;-65
2021/12/04 05:16:17;;;;;;;7.38;3.53;;;;;;;4.35;77.13;98070.22;5062794;28;20527;-64
2021/12/04 05:18:53;;;;;;;7.28;2.97;;;;;;;4.70;75.93;98063.28;5062574;28;20024;-64
2021/12/04 05:21:19;;;;;;;5.90;3.58;;;;;;;4.81;75.52;98057.91;5060621;28;20123;-63
2021/12/04 05:23:52;;;;;;;5.50;2.65;;;;;;;4.46;77.33;98054.88;5062201;28;20101;-64
2021/12/04 05:26:21;;;;;;;6.47;3.22;;;;;;;4.77;75.85;98063.84;5061054;28;20048;-64
2021/12/04 05:28:47;;;;;;;8.00;3.30;;;;;;;4.34;77.55;98064.03;5061882;28;20032;-64
2021/12/04 05:31:13;;;;;;;6.70;3.22;;;;;;;4.09;78.31;98066.34;5061715;28;20455;-64
2021/12/04 05:33:40;;;;;;;6.20;3.08;;;;;;;3.99;78.93;98065.53;5062161;28;20548;-64
2021/12/04 05:36:07;;;;;;;6.05;3.13;;;;;;;4.37;77.64;98060.81;5061934;28;20032;-64
2021/12/04 05:38:32;;;;;;;7.78;3.38;;;;;;;4.35;78.15;98060.25;5061820;28;20039;-64
2021/12/04 05:40:58;;;;;;;6.85;3.20;;;;;;;4.48;77.97;98068.91;5061232;28;20016;-63
2021/12/04 05:43:25;;;;;;;8.05;3.72;;;;;;;5.01;75.48;98057.91;5043016;28;20673;-64
2021/12/04 05:45:59;;;;;;;9.90;3.47;;;;;;;4.15;77.79;98058.31;5062064;28;20480;-65
2021/12/04 05:48:42;;;;;;;5.60;3.20;;;;;;;4.31;78.05;98056.47;5061531;28;20112;-65
2021/12/04 05:56:19;;;;;;;7.15;3.38;;;;;;;4.58;77.20;98062.75;5061044;28;19955;-65
2021/12/04 05:58:46;;;;;;;7.15;3.00;;;;;;;4.79;76.85;98064.41;5061223;28;20479;-64
2021/12/04 06:01:12;;;;;;;7.15;3.55;;;;;;;4.69;77.05;98053.56;5060547;28;20523;-64
2021/12/04 06:03:37;;;;;;;6.35;3.08;;;;;;;5.23;75.33;98054.13;5061072;28;20180;-64
2021/12/04 06:06:03;;;;;;;6.47;2.47;;;;;;;4.38;77.86;98053.50;5061470;28;20040;-62
2021/12/04 06:08:29;;;;;;;7.28;3.30;;;;;;;4.28;78.10;98047.00;5061560;28;20025;-65
2021/12/04 06:10:55;;;;;;;6.40;3.17;;;;;;;4.80;77.76;98048.97;5061164;28;20586;-65
2021/12/04 06:13:20;;;;;;;8.45;3.97;;;;;;;4.20;78.57;98052.91;5060264;28;20056;-63
2021/12/04 06:15:46;;;;;;;6.70;3.60;;;;;;;4.30;79.41;98050.25;5061388;28;20140;-64
2021/12/04 06:18:15;;;;;;;6.85;2.50;;;;;;;4.24;78.99;98051.31;5060754;28;20560;-65
2021/12/04 06:23:24;;;;;;;6.82;3.30;;;;;;;4.77;77.40;98054.94;5060693;28;20077;-64
2021/12/04 06:25:50;;;;;;;8.10;3.92;;;;;;;4.38;78.29;98048.09;5060425;28;20498;-64
2021/12/04 06:28:16;;;;;;;8.52;3.67;;;;;;;4.50;78.00;98045.97;5060265;28;20024;-64
2021/12/04 06:30:43;;;;;;;8.68;3.90;;;;;;;4.42;77.58;98043.78;5061082;28;20036;-63
2021/12/04 06:33:11;;;;;;;6.28;3.92;;;;;;;4.37;78.27;98043.78;5042911;28;20034;-63
2021/12/04 06:35:40;;;;;;;7.70;3.25;;;;;;;4.38;78.07;98040.00;5061009;28;20695;-64
2021/12/04 06:38:09;;;;;;;8.40;4.25;;;;;;;4.17;78.39;98046.16;5060397;28;20077;-64
2021/12/04 06:40:38;;;;;;;8.63;3.58;;;;;;;4.21;78.58;98043.72;5060596;28;20605;-64
2021/12/04 06:43:05;;;;;;;8.45;5.07;;;;;;;4.22;79.65;98031.06;5059636;28;20024;-63
2021/12/04 06:45:32;;;;;;;10.50;4.80;;;;;;;4.18;79.44;98028.09;5060274;28;20032;-63
2021/12/04 06:48:02;;;;;;;7.95;3.80;;;;;;;4.57;78.42;98034.13;5059893;28;20553;-65
2021/12/04 06:50:52;;;;;;;7.35;3.90;;;;;;;4.20;79.19;98034.03;5061075;28;20901;-65
2021/12/04 06:53:28;;;;;;;9.35;5.10;;;;;;;4.11;79.06;98035.63;5058721;28;20044;-64
2021/12/04 06:55:55;;;;;;;8.30;4.55;;;;;;;4.40;79.13;98035.97;5041786;28;20028;-62
2021/12/04 06:58:24;;;;;;;9.07;3.55;;;;;;;4.28;78.55;98035.41;5058990;28;20064;-63
2021/12/04 07:00:49;;;;;;;10.27;4.35;;;;;;;4.14;79.25;98035.09;5059868;28;20494;-64
2021/12/04 07:03:15;;;;;;;9.13;4.82;;;;;;;4.08;79.55;98036.97;5060510;28;20028;-64
2021/12/04 07:05:41;;;;;;;8.77;4.30;;;;;;;4.45;78.80;98037.88;5059589;28;20037;-65
2021/12/04 07:08:06;;;;;;;10.73;4.43;;;;;;;3.89;79.85;98031.22;5059399;28;20073;-64
2021/12/04 07:10:33;;;;;;;10.55;5.43;;;;;;;4.19;80.07;98027.81;5059506;28;20024;-66
2021/12/04 07:12:59;;;;;;;8.13;3.70;;;;;;;4.36;79.38;98029.47;5058891;28;20066;-64
2021/12/04 07:15:29;;;;;;;12.15;5.80;;;;;;;4.16;79.58;98028.34;5060300;28;20163;-63
2021/12/04 07:17:55;;;;;;;11.07;6.13;;;;;;;3.97;80.34;98042.31;5059910;28;20025;-64
2021/12/04 07:20:20;;;;;;;10.30;5.18;;;;;;;4.18;80.49;98025.38;5060074;28;20031;-63
2021/12/04 07:22:45;;;;;;;6.68;3.83;;;;;;;4.05;79.99;98024.81;5059109;28;20020;-64
2021/12/04 07:25:11;;;;;;;10.52;5.35;;;;;;;4.77;78.72;98028.75;5060136;28;20543;-65
2021/12/04 07:27:36;;;;;;;8.85;4.40;;;;;;;4.20;80.30;98028.63;5059293;28;20043;-66
2021/12/04 07:32:48;;;;;;;9.95;5.35;;;;;;;4.50;78.83;98020.88;5054736;28;20067;-64
2021/12/04 07:35:15;;;;;;;9.48;4.32;;;;;;;4.31;79.56;98011.38;5059033;28;20103;-64
2021/12/04 07:37:41;;;;;;;9.50;5.00;;;;;;;4.38;79.71;98018.41;5059615;28;20053;-64
2021/12/04 07:40:07;;;;;;;9.48;4.90;;;;;;;4.27;79.56;98018.38;5057852;28;20052;-64
2021/12/04 07:42:32;;;;;;;12.25;5.30;;;;;;;4.11;80.18;98025.63;5059192;28;20048;-63
2021/12/04 07:44:59;;;;;;;10.25;5.28;;;;;;;4.71;78.18;98019.03;5058458;28;20036;-64
2021/12/04 07:47:25;;;;;;;9.52;4.53;;;;;;;4.49;78.64;98024.66;5059367;28;20028;-64
2021/12/04 07:49:50;;;;;;;10.68;5.88;;;;;;;4.27;80.76;98023.78;5059110;28;20024;-64
2021/12/04 07:52:15;;;;;;;9.80;4.68;;;;;;;4.43;80.16;98021.16;5058705;28;20039;-63
2021/12/04 07:54:42;;;;;;;14.43;6.05;;;;;;;4.27;80.29;98018.38;5059612;28;20029;-64
2021/12/04 07:57:07;;;;;;;11.95;5.85;;;;;;;4.29;80.41;98021.63;5059336;28;20427;-64
2021/12/04 07:59:32;;;;;;;10.82;5.07;;;;;;;4.82;78.76;98017.13;5058361;28;20031;-62
2021/12/04 08:01:58;;;;;;;11.23;5.95;;;;;;;4.46;79.63;98025.19;5057205;28;20037;-64
2021/12/04 08:04:24;;;;;;;10.30;5.78;;;;;;;4.35;80.06;98013.56;5058506;28;20029;-64
2021/12/04 08:06:51;;;;;;;9.32;5.72;;;;;;;4.00;81.81;98027.50;5058137;28;20459;-64
2021/12/04 08:09:17;;;;;;;11.10;5.22;;;;;;;4.29;80.79;98027.03;5059120;28;20350;-64
2021/12/04 08:11:42;;;;;;;10.65;5.85;;;;;;;4.46;80.46;98028.69;5059112;28;20699;-64
2021/12/04 08:14:07;;;;;;;13.27;6.45;;;;;;;4.68;79.36;98033.03;5058271;28;20055;-62
2021/12/04 08:16:33;;;;;;;11.45;6.38;;;;;;;4.26;81.04;98038.38;5059578;28;20458;-64
2021/12/04 08:19:00;;;;;;;11.93;5.30;;;;;;;4.31;81.05;98037.59;5058506;28;20438;-64
2021/12/04 08:21:25;;;;;;;13.55;6.05;;;;;;;4.29;80.59;98035.13;5059306;28;20086;-63
2021/12/04 08:23:50;;;;;;;11.88;6.05;;;;;;;4.36;81.04;98036.75;5058860;28;20052;-64
2021/12/04 08:26:16;;;;;;;12.57;6.60;;;;;;;4.65;79.31;98039.81;5058866;28;20503;-63
2021/12/04 08:28:42;;;;;;;12.00;5.82;;;;;;;4.12;81.96;98038.06;5058714;28;20028;-63
2021/12/04 08:31:07;;;;;;;13.00;6.05;;;;;;;4.96;78.41;98033.63;5058931;28;20040;-63
2021/12/04 08:33:33;;;;;;;10.90;5.60;;;;;;;5.41;77.27;98027.59;5059066;28;20041;-64
2021/12/04 08:35:58;;;;;;;9.18;4.28;;;;;;;5.45;75.93;98028.69;5057785;28;20024;-66
2021/12/04 08:38:24;;;;;;;15.80;5.85;;;;;;;5.25;76.41;98024.13;5058975;28;20364;-66
2021/12/04 08:40:49;;;;;;;12.23;6.32;;;;;;;5.11;77.45;98015.75;5040552;28;20070;-65
2021/12/04 08:43:15;;;;;;;10.25;5.25;;;;;;;5.30;76.49;98015.22;5058506;28;20513;-64
2021/12/04 08:45:41;;;;;;;10.10;5.68;;;;;;;5.37;77.29;98016.53;5058665;28;20383;-65
2021/12/04 08:48:08;;;;;;;15.52;5.82;;;;;;;5.34;77.96;98011.69;5058647;28;20480;-66
2021/12/04 08:50:35;;;;;;;9.43;4.88;;;;;;;5.70;76.99;98018.91;5058806;28;20042;-66
2021/12/04 08:53:02;;;;;;;10.73;6.28;;;;;;;5.12;78.72;98009.28;5058112;28;20082;-65
2021/12/04 08:55:29;;;;;;;15.48;5.97;;;;;;;5.18;77.99;98008.22;5060740;28;20581;-64
2021/12/04 08:57:55;;;;;;;10.45;5.32;;;;;;;5.56;78.12;98002.44;5062379;28;20071;-65
2021/12/04 09:00:49;;;;;;;10.63;5.97;;;;;;;5.23;78.20;98005.50;5062373;28;20067;-65
2021/12/04 09:03:17;;;;;;;11.68;5.85;;;;;;;5.83;76.26;98006.69;5044035;28;20105;-67
2021/12/04 09:05:42;;;;;;;11.45;6.07;;;;;;;6.02;75.43;98007.97;5062220;28;20119;-64
2021/12/04 09:08:08;;;;;;;14.52;5.07;;;;;;;5.81;75.52;98013.47;5062585;28;20025;-65
2021/12/04 09:10:34;;;;;;;10.30;5.47;;;;;;;5.35;76.90;98012.50;5061647;28;20044;-65
2021/12/04 09:12:59;;;;;;;8.70;5.20;;;;;;;5.45;76.86;98017.09;5061653;28;20316;-72
2021/12/04 09:15:31;;;;;;;10.73;5.97;;;;;;;5.18;78.35;98010.09;5061745;28;20473;-65
2021/12/04 09:17:57;;;;;;;10.90;4.82;;;;;;;5.65;76.76;98010.81;5061828;28;20032;-64
2021/12/04 09:20:22;;;;;;;10.68;5.22;;;;;;;5.86;76.11;98007.22;5061603;28;20032;-65
2021/12/04 09:22:48;;;;;;;8.45;4.38;;;;;;;5.12;77.02;98014.69;5043618;28;20016;-65
2021/12/04 09:25:17;;;;;;;10.00;4.63;;;;;;;5.13;78.30;98017.13;5061487;28;20028;-65
2021/12/04 09:33:32;;;;;;;9.95;5.32;;;;;;;6.23;75.31;98006.00;5061842;28;20097;-64
2021/12/04 10:03:08;;;;;;;7.78;4.38;;;;;;;6.36;75.12;97974.81;5075627;28;20040;-63
2021/12/04 10:21:14;;;;;;;8.35;4.15;;;;;;;5.75;77.02;97915.31;5070678;28;20056;-64
2021/12/04 10:34:34;;;;;;;;;;;;;;;5.70;78.19;97888.28;5074784;28;20039;-64
2021/12/04 10:37:12;;;;;;;6.95;3.42;;;;;;;5.67;78.60;97884.25;5072365;28;19973;-64
2021/12/04 10:39:38;;;;;;;8.52;4.40;;;;;;;5.71;77.30;97881.81;5072207;28;20035;-65
2021/12/04 10:42:12;;;;;;;10.55;4.63;;;;;;;6.10;76.89;97884.84;5072447;28;20036;-64
2021/12/04 10:44:38;;;;;;;;;;;;;;;6.13;75.40;97885.09;5073352;28;20055;-63
2021/12/04 10:47:11;;;;;;;8.32;3.83;;;;;;;6.29;75.40;97866.84;5071530;28;19962;-64
2021/12/04 11:03:40;;;;;;;8.70;3.42;;;;;;;5.89;76.57;97847.91;5074515;28;20067;-64
2021/12/04 11:36:15;;;;;;;5.28;2.55;;;;;;;7.21;69.61;97770.56;5071588;28;20486;-64
2021/12/04 11:41:35;;;;;;;7.85;3.95;;;;;;;7.21;70.25;97769.75;5071537;28;20208;-64
2021/12/04 11:44:07;;;;;;;8.77;3.42;;;;;;;6.75;71.75;97769.22;5070505;28;20033;-64
2021/12/04 11:46:44;;;;;;;7.57;3.85;;;;;;;6.10;73.72;97761.22;5071744;28;20554;-63
2021/12/04 11:49:19;;;;;;;4.70;2.22;;;;;;;6.97;71.26;97743.50;5070882;28;20112;-65
2021/12/04 11:51:54;;;;;;;6.82;3.30;;;;;;;6.17;73.42;97729.19;5071693;28;20047;-65
2021/12/04 11:54:20;;;;;;;6.00;2.53;;;;;;;6.19;73.80;97732.44;5071309;28;20026;-64
2021/12/04 11:56:45;;;;;;;4.97;2.60;;;;;;;6.97;71.02;97722.63;5073143;28;20111;-65
2021/12/04 11:59:10;;;;;;;7.38;2.47;;;;;;;6.69;71.93;97730.53;5071988;28;20111;-64
2021/12/04 12:01:38;;;;;;;5.38;2.60;;;;;;;6.80;71.66;97733.94;5072351;28;20131;-65
2021/12/04 12:04:10;;;;;;;7.93;2.72;;;;;;;6.41;72.42;97733.81;5072555;28;20024;-64
2021/12/04 12:06:44;;;;;;;4.45;1.88;;;;;;;6.56;71.98;97740.16;5073151;28;20040;-65
2021/12/04 12:09:17;;;;;;;3.83;2.45;;;;;;;6.44;73.17;97737.88;5070068;28;20040;-64
2021/12/04 12:11:49;;;;;;;8.35;3.22;;;;;;;6.52;72.11;97729.13;5070073;28;20597;-63
2021/12/04 12:14:16;;;;;;;6.00;2.85;;;;;;;5.98;74.27;97730.97;5072728;28;20388;-64
2021/12/04 12:16:52;;;;;;;4.40;2.38;;;;;;;5.72;74.75;97735.50;5072456;28;20519;-64
2021/12/04 12:19:35;;;;;;;6.25;2.70;;;;;;;6.47;72.18;97731.06;5071571;28;20024;-64
2021/12/04 12:22:28;;;;;;;8.88;3.22;;;;;;;7.16;70.57;97723.75;5071943;28;20040;-64
2021/12/04 12:27:29;;;;;;;14.48;3.03;;;;;;;7.69;69.44;97719.97;5072430;28;20039;-64
2021/12/04 12:38:12;;;;;;;4.07;1.90;;;;;;;7.57;69.84;97696.00;5072480;28;20105;-64
2021/12/04 12:40:38;;;;;;;5.53;2.80;;;;;;;6.98;70.67;97690.91;5073855;28;20426;-65
2021/12/04 12:43:14;;;;;;;8.32;3.88;;;;;;;6.38;73.44;97695.69;5074521;28;20230;-65
2021/12/04 12:45:39;;;;;;;5.93;3.58;;;;;;;7.01;71.27;97682.22;5071414;28;20099;-62
2021/12/04 12:48:08;;;;;;;4.80;2.17;;;;;;;7.54;69.84;97664.06;5075202;28;20611;-67
2021/12/04 12:50:38;;;;;;;6.18;2.97;;;;;;;7.65;69.17;97655.75;5073858;28;20036;-65
2021/12/04 12:53:11;;;;;;;3.80;1.98;;;;;;;6.96;71.82;97644.31;5075832;28;20438;-66
2021/12/04 12:55:44;;;;;;;6.35;3.45;;;;;;;7.68;69.48;97636.19;5075765;28;20044;-67
2021/12/04 12:58:36;;;;;;;5.63;2.17;;;;;;;8.02;68.97;97645.88;5074957;28;20111;-68
2021/12/04 13:12:23;;;;;;;7.90;3.40;;;;;;;7.64;69.33;97610.75;5075915;28;20477;-67
2021/12/04 13:14:51;;;;;;;5.20;2.50;;;;;;;7.28;69.88;97618.38;5056984;28;20043;-68
2021/12/04 13:17:26;;;;;;;4.97;2.05;;;;;;;7.79;68.74;97615.91;5074592;28;20032;-68
2021/12/04 13:19:55;;;;;;;10.65;3.03;;;;;;;7.36;69.70;97617.69;5073414;28;20043;-68
2021/12/04 13:22:29;;;;;;;8.98;3.05;;;;;;;6.93;71.35;97610.53;5073584;28;20032;-68
2021/12/04 13:24:57;;;;;;;8.07;2.95;;;;;;;7.38;69.93;97616.63;5073796;28;20092;-68
2021/12/04 13:29:52;;;;;;;3.78;1.90;;;;;;;6.59;72.88;97628.56;5075559;28;20055;-67
2021/12/04 13:32:38;;;;;;;4.93;2.25;;;;;;;7.00;71.93;97618.25;5074836;28;20150;-68
2021/12/04 13:35:14;;;;;;;3.30;1.40;;;;;;;6.96;71.96;97617.25;5074350;28;20048;-68
2021/12/04 13:37:41;;;;;;;4.50;2.00;;;;;;;7.00;71.10;97615.56;5073281;28;20504;-67
2021/12/04 13:40:11;;;;;;;5.10;3.20;;;;;;;6.86;72.41;97610.88;5073973;28;20044;-67
2021/12/04 13:42:38;;;;;;;5.65;2.65;;;;;;;7.83;69.19;97610.72;5055599;28;20134;-67
2021/12/04 13:45:07;;;;;;;7.03;2.50;;;;;;;7.91;68.98;97622.78;5075062;28;20449;-67
2021/12/04 13:47:33;;;;;;;4.68;2.47;;;;;;;7.27;70.64;97629.53;5074489;28;20031;-66
2021/12/04 13:50:00;;;;;;;4.90;2.72;;;;;;;7.30;70.58;97627.00;5056270;28;20314;-68
2021/12/04 13:52:32;;;;;;;7.03;3.53;;;;;;;7.08;71.05;97633.84;5074906;28;20407;-69
2021/12/04 13:55:10;;;;;;;3.72;1.73;;;;;;;6.83;72.44;97641.28;5056501;28;20093;-69
2021/12/04 13:57:40;;;;;;;5.75;3.10;;;;;;;6.40;75.06;97655.63;5074342;28;20031;-65
2021/12/04 14:00:08;;;;;;;8.35;2.40;;;;;;;7.43;72.29;97647.16;5073587;28;20399;-69
2021/12/04 14:02:33;;;;;;;4.45;2.00;;;;;;;7.76;70.87;97640.13;5073035;28;20025;-68
2021/12/04 14:05:07;;;;;;;4.03;2.15;;;;;;;7.88;70.86;97637.72;5074201;28;20051;-68
2021/12/04 14:07:33;;;;;;;;;;;;;;;7.99;70.22;97646.50;5074374;28;20028;-68
2021/12/04 14:10:09;;;;;;;4.90;2.33;;;;;;;8.07;70.56;97647.72;5074811;28;20455;-68
2021/12/04 14:12:35;;;;;;;3.53;2.03;;;;;;;8.06;70.37;97659.66;5071830;28;20085;-67
2021/12/04 14:15:08;;;;;;;5.65;3.15;;;;;;;8.18;70.14;97654.53;5074529;28;20033;-68
2021/12/04 14:17:33;;;;;;;6.22;2.88;;;;;;;7.22;73.26;97660.25;5073850;28;20074;-68
2021/12/04 14:19:58;;;;;;;5.95;2.08;;;;;;;7.75;71.64;97650.16;5073247;28;20037;-68
2021/12/04 14:22:24;;;;;;;8.48;2.63;;;;;;;7.74;72.27;97643.13;5071075;28;20501;-67
2021/12/04 14:24:55;;;;;;;5.35;2.88;;;;;;;8.05;71.02;97642.56;5072902;28;20113;-68
2021/12/04 14:27:24;;;;;;;3.80;2.22;;;;;;;8.02;71.17;97642.38;5072415;28;20039;-68
2021/12/04 14:29:55;;;;;;;5.35;2.95;;;;;;;8.04;71.27;97640.97;5071864;28;20082;-69
2021/12/04 14:32:23;;;;;;;5.53;2.53;;;;;;;8.11;70.92;97634.34;5072702;28;20503;-69
2021/12/04 14:35:00;;;;;;;5.25;3.00;;;;;;;7.99;71.56;97645.69;5070926;28;20094;-68
2021/12/04 14:37:27;;;;;;;6.45;2.92;;;;;;;8.03;71.46;97642.06;5054269;28;20425;-68
2021/12/04 14:39:53;;;;;;;5.65;3.03;;;;;;;8.06;71.40;97646.91;5074210;28;20040;-67
2021/12/04 14:42:22;;;;;;;8.63;3.83;;;;;;;8.04;71.85;97642.88;5073338;28;20035;-68
2021/12/04 14:44:51;;;;;;;8.02;3.60;;;;;;;8.05;71.69;97645.28;5073497;28;20051;-68
2021/12/04 14:47:18;;;;;;;9.88;4.30;;;;;;;8.12;71.29;97646.78;5072759;28;20498;-68
2021/12/04 14:49:46;;;;;;;6.82;4.00;;;;;;;7.86;72.22;97653.50;5073711;28;20082;-67
2021/12/04 14:52:20;;;;;;;8.82;3.45;;;;;;;8.05;71.80;97655.34;5073490;28;20329;-65
2021/12/04 14:54:46;;;;;;;8.23;4.65;;;;;;;7.87;72.38;97654.31;5072411;28;20032;-67
2021/12/04 14:57:15;;;;;;;9.68;5.55;;;;;;;7.76;72.86;97659.91;5074107;28;20119;-67
2021/12/04 14:59:41;;;;;;;12.00;7.07;;;;;;;7.07;74.34;97659.34;5073763;28;20029;-68
2021/12/04 15:02:20;;;;;;;11.15;6.13;;;;;;;6.06;78.67;97668.16;5073399;28;20157;-67
2021/12/04 15:04:46;;;;;;;11.48;5.90;;;;;;;5.70;80.55;97678.19;5071525;28;20051;-70
2021/12/04 15:07:26;;;;;;;11.38;6.90;;;;;;;5.76;80.93;97678.13;5073273;28;20124;-67